Time;durP1;ratioP1;P1;durP2;ratioP2;P2;SDS_P1;SDS_P2;PMS_P1;PMS_P2;Temp;Humidity;BMP_temperature;BMP_pressure;BME280_temperature;BME280_humidity;BME280_pressure;Samples;Min_cycle;Max_cycle;Signal;HPM_P1;HPM_P2
2021/08/17 00:00:23;;;;;;;13.23;10.23;;;24.20;62.60;;;;;;5036698;28;20033;-61
2021/08/17 00:02:48;;;;;;;17.45;11.05;;;24.20;62.70;;;;;;5037536;28;20026;-61
2021/08/17 00:05:14;;;;;;;13.95;9.93;;;24.10;62.70;;;;;;5036331;28;20366;-61
2021/08/17 00:07:40;;;;;;;11.85;9.27;;;24.20;63.70;;;;;;5036272;28;20402;-61
2021/08/17 00:10:07;;;;;;;12.55;9.85;;;24.10;63.00;;;;;;5032636;28;20030;-61
2021/08/17 00:12:33;;;;;;;13.07;10.63;;;24.10;63.20;;;;;;5034084;28;20021;-61
2021/08/17 00:14:59;;;;;;;15.27;10.07;;;24.00;62.90;;;;;;5024708;28;20021;-61
2021/08/17 00:17:25;;;;;;;14.32;10.40;;;24.10;62.90;;;;;;5035867;28;20013;-61
2021/08/17 00:19:51;;;;;;;13.82;10.40;;;24.00;62.90;;;;;;5035893;28;20076;-61
2021/08/17 00:22:22;;;;;;;12.18;10.05;;;24.00;62.90;;;;;;5035394;28;20033;-61
2021/08/17 00:24:48;;;;;;;13.95;10.07;;;24.00;62.90;;;;;;5036084;28;20411;-61
2021/08/17 00:27:13;;;;;;;12.52;9.70;;;24.00;62.80;;;;;;5035207;28;20109;-61
2021/08/17 00:29:39;;;;;;;13.23;9.55;;;24.00;62.80;;;;;;5034878;28;20036;-61
2021/08/17 00:32:05;;;;;;;12.43;9.95;;;24.00;62.80;;;;;;5034805;28;20631;-61
2021/08/17 00:34:30;;;;;;;14.20;9.73;;;24.00;62.50;;;;;;5051059;28;20567;-61
2021/08/17 00:36:56;;;;;;;13.88;9.93;;;24.00;62.70;;;;;;5034409;28;20026;-61
2021/08/17 00:39:23;;;;;;;13.85;10.82;;;24.00;62.70;;;;;;5035502;28;20025;-61
2021/08/17 00:41:48;;;;;;;13.80;10.30;;;23.90;62.50;;;;;;5035819;28;20017;-61
2021/08/17 00:44:25;;;;;;;17.02;11.00;;;23.90;62.40;;;;;;5035241;28;20033;-61
2021/08/17 00:46:56;;;;;;;12.68;9.90;;;24.00;62.50;;;;;;5035186;28;20032;-61
2021/08/17 00:49:23;;;;;;;13.85;10.13;;;23.90;62.50;;;;;;5035326;28;20099;-61
2021/08/17 00:51:51;;;;;;;15.85;9.82;;;23.90;62.50;;;;;;5035388;28;20025;-61
2021/08/17 00:54:17;;;;;;;12.93;10.32;;;23.90;62.50;;;;;;5033820;28;20029;-61
2021/08/17 00:56:43;;;;;;;14.23;10.82;;;23.90;62.40;;;;;;5018959;28;20026;-61
2021/08/17 00:59:09;;;;;;;14.77;10.93;;;23.90;62.50;;;;;;5033663;28;20515;-61
2021/08/17 01:01:35;;;;;;;13.55;10.40;;;23.90;62.20;;;;;;5048303;28;20096;-61
2021/08/17 01:04:02;;;;;;;13.32;10.18;;;23.90;62.30;;;;;;5035215;28;20097;-61
2021/08/17 01:06:30;;;;;;;15.38;10.40;;;23.80;62.30;;;;;;5034796;28;20017;-61
2021/08/17 01:08:56;;;;;;;17.55;11.77;;;23.80;62.20;;;;;;5034517;28;20026;-61
2021/08/17 01:11:21;;;;;;;14.52;10.65;;;23.80;62.10;;;;;;5034825;28;20109;-61
2021/08/17 01:13:50;;;;;;;17.23;11.52;;;23.80;62.30;;;;;;5034834;28;20037;-61
2021/08/17 01:16:15;;;;;;;14.05;10.98;;;23.80;62.10;;;;;;5034604;28;20033;-61
2021/08/17 01:18:41;;;;;;;15.85;11.90;;;23.80;62.30;;;;;;5034691;28;20021;-61
2021/08/17 01:21:08;;;;;;;15.68;12.50;;;23.80;62.20;;;;;;5034731;28;20030;-61
2021/08/17 01:23:34;;;;;;;17.83;12.45;;;23.80;62.30;;;;;;5033835;28;20500;-61
2021/08/17 01:26:00;;;;;;;14.35;10.82;;;23.80;62.20;;;;;;5025028;28;20121;-61
2021/08/17 01:28:26;;;;;;;14.70;11.13;;;23.70;62.20;;;;;;5027722;28;20093;-61
2021/08/17 01:31:18;;;;;;;14.00;10.95;;;23.70;62.20;;;;;;5046167;28;20044;-61
2021/08/17 01:33:43;;;;;;;15.20;11.60;;;23.70;62.10;;;;;;5031587;28;20030;-61
2021/08/17 01:36:09;;;;;;;18.45;12.15;;;23.70;62.20;;;;;;5034297;28;20500;-61
2021/08/17 01:38:48;;;;;;;16.70;12.35;;;23.70;62.30;;;;;;5034521;28;20055;-61
2021/08/17 01:41:14;;;;;;;15.95;12.32;;;23.70;62.20;;;;;;5018536;28;20524;-61
2021/08/17 01:43:40;;;;;;;15.70;12.68;;;23.70;62.30;;;;;;5033909;28;20029;-61
2021/08/17 01:46:06;;;;;;;18.02;13.23;;;23.70;62.20;;;;;;5033142;28;20129;-61
2021/08/17 01:48:32;;;;;;;16.30;12.63;;;23.70;62.10;;;;;;5034284;28;20488;-61
2021/08/17 01:50:59;;;;;;;16.88;12.27;;;23.70;62.20;;;;;;5033881;28;20377;-61
2021/08/17 01:53:30;;;;;;;16.63;12.25;;;23.70;62.20;;;;;;5034471;28;20385;-61
2021/08/17 01:55:57;;;;;;;16.13;11.77;;;23.70;62.20;;;;;;5034118;28;20095;-61
2021/08/17 01:58:23;;;;;;;16.65;11.07;;;23.70;62.10;;;;;;5033452;28;20044;-61
2021/08/17 02:00:49;;;;;;;13.32;11.10;;;23.70;62.10;;;;;;5044043;28;20039;-61
2021/08/17 02:03:15;;;;;;;14.18;11.00;;;23.70;62.00;;;;;;5032877;28;20384;-61
2021/08/17 02:05:40;;;;;;;15.35;10.95;;;23.70;61.90;;;;;;5033846;28;20028;-61
2021/08/17 02:08:06;;;;;;;17.38;10.65;;;23.70;61.80;;;;;;5033690;28;20080;-61
2021/08/17 02:10:32;;;;;;;14.05;10.52;;;23.70;61.80;;;;;;5033380;28;20503;-61
2021/08/17 02:12:58;;;;;;;15.85;11.15;;;23.70;61.80;;;;;;5031861;28;20361;-61
2021/08/17 02:15:24;;;;;;;13.20;10.88;;;23.70;61.60;;;;;;5033949;28;20033;-61
2021/08/17 02:17:49;;;;;;;14.90;10.40;;;23.70;61.70;;;;;;5025129;28;20396;-61
2021/08/17 02:20:15;;;;;;;13.70;10.57;;;23.70;61.50;;;;;;5031491;28;20072;-61
2021/08/17 02:22:41;;;;;;;14.70;11.40;;;23.70;61.50;;;;;;5033725;28;20063;-61
2021/08/17 02:25:07;;;;;;;15.85;11.20;;;23.70;61.50;;;;;;5033523;28;20389;-61
2021/08/17 02:27:36;;;;;;;18.27;11.57;;;23.70;61.60;;;;;;5035646;28;20501;-61
2021/08/17 02:30:03;;;;;;;13.90;10.57;;;23.70;61.60;;;;;;5032911;28;20030;-61
2021/08/17 02:32:29;;;;;;;16.25;10.95;;;23.70;61.90;;;;;;5033397;28;20025;-61
2021/08/17 02:34:54;;;;;;;13.30;10.55;;;23.70;62.00;;;;;;5033582;28;20148;-61
2021/08/17 02:37:20;;;;;;;13.25;10.05;;;23.60;62.00;;;;;;5032636;28;20022;-61
2021/08/17 02:39:46;;;;;;;11.88;8.88;;;23.60;62.10;;;;;;5033444;28;20147;-61
2021/08/17 02:42:12;;;;;;;12.30;8.88;;;23.60;62.10;;;;;;5033303;28;20037;-61
2021/08/17 02:44:37;;;;;;;15.00;9.10;;;23.60;62.20;;;;;;5032902;28;20034;-61
2021/08/17 02:47:03;;;;;;;12.60;8.48;;;23.60;62.00;;;;;;5032782;28;20040;-61
2021/08/17 02:49:32;;;;;;;10.80;8.55;;;23.60;62.20;;;;;;5033252;28;20025;-61
2021/08/17 02:52:00;;;;;;;11.60;9.18;;;23.60;62.20;;;;;;5033591;28;20049;-61
2021/08/17 02:54:26;;;;;;;13.35;8.90;;;23.50;62.20;;;;;;5033050;28;20029;-61
2021/08/17 02:56:52;;;;;;;13.00;9.05;;;23.50;62.00;;;;;;5034603;28;20025;-61
2021/08/17 02:59:18;;;;;;;17.08;10.13;;;23.50;62.30;;;;;;5033063;28;20021;-61
2021/08/17 03:01:43;;;;;;;13.95;9.65;;;23.50;62.90;;;;;;5032798;28;20030;-61
2021/08/17 03:04:09;;;;;;;12.40;9.77;;;23.50;62.10;;;;;;5033122;28;20037;-61
2021/08/17 03:06:34;;;;;;;14.27;10.60;;;23.50;61.90;;;;;;5033012;28;20071;-61
2021/08/17 03:09:00;;;;;;;14.50;10.15;;;23.50;62.10;;;;;;5032992;28;20033;-61
2021/08/17 03:11:26;;;;;;;13.70;10.00;;;23.50;62.00;;;;;;5032989;28;20075;-61
2021/08/17 03:13:52;;;;;;;13.88;9.35;;;23.50;61.90;;;;;;5033120;28;20041;-61
2021/08/17 03:16:18;;;;;;;12.38;9.05;;;23.60;61.90;;;;;;5027711;28;20033;-61
2021/08/17 03:18:43;;;;;;;13.02;8.77;;;23.60;61.80;;;;;;5029364;28;20025;-61
2021/08/17 03:21:09;;;;;;;11.88;9.20;;;23.60;61.60;;;;;;5036974;28;20110;-61
2021/08/17 03:23:35;;;;;;;10.35;8.18;;;23.70;61.60;;;;;;5036932;28;20030;-61
2021/08/17 03:26:01;;;;;;;10.50;8.55;;;23.70;61.50;;;;;;5036927;28;20021;-61
2021/08/17 03:28:26;;;;;;;11.20;8.45;;;23.80;61.30;;;;;;5036599;28;20061;-61
2021/08/17 03:30:52;;;;;;;9.45;8.05;;;23.80;61.20;;;;;;5036494;28;20372;-61
2021/08/17 03:33:17;;;;;;;13.13;8.05;;;23.90;61.10;;;;;;5036924;28;20016;-61
2021/08/17 03:35:44;;;;;;;9.35;7.80;;;23.90;60.90;;;;;;5036620;28;20041;-61
2021/08/17 03:38:09;;;;;;;13.18;7.93;;;24.00;60.80;;;;;;5036092;28;20033;-61
2021/08/17 03:40:35;;;;;;;11.00;7.88;;;24.10;60.50;;;;;;5036685;28;20034;-61
2021/08/17 03:43:00;;;;;;;12.95;7.93;;;24.20;60.50;;;;;;5036639;28;20065;-61
2021/08/17 03:45:26;;;;;;;11.23;8.48;;;24.20;60.30;;;;;;5036666;28;20044;-61
2021/08/17 03:47:52;;;;;;;11.93;7.85;;;24.30;60.20;;;;;;5036002;28;20025;-61
2021/08/17 03:50:19;;;;;;;10.40;7.57;;;24.40;60.00;;;;;;5036355;28;20112;-61
2021/08/17 03:52:45;;;;;;;10.65;7.63;;;24.40;59.80;;;;;;5035963;28;20037;-61
2021/08/17 03:55:12;;;;;;;9.45;7.68;;;24.50;59.70;;;;;;5036247;28;20037;-62
2021/08/17 03:57:38;;;;;;;11.57;8.48;;;24.50;59.60;;;;;;5037359;28;20072;-62
2021/08/17 04:00:09;;;;;;;14.88;9.90;;;24.60;59.50;;;;;;5036020;28;20034;-62
2021/08/17 04:02:35;;;;;;;21.38;12.45;;;24.70;59.30;;;;;;5035896;28;20025;-62
2021/08/17 04:05:01;;;;;;;34.28;18.83;;;24.70;59.40;;;;;;5036031;28;20030;-62
2021/08/17 04:07:26;;;;;;;43.45;23.45;;;24.80;59.30;;;;;;5035595;28;20031;-62
2021/08/17 04:09:52;;;;;;;42.80;22.52;;;24.90;59.40;;;;;;5036061;28;20030;-62
2021/08/17 04:12:18;;;;;;;37.85;21.48;;;25.00;59.30;;;;;;5028182;28;20535;-62
2021/08/17 04:14:43;;;;;;;33.72;18.05;;;25.10;59.00;;;;;;5032067;28;20041;-62
2021/08/17 04:17:09;;;;;;;28.90;17.48;;;25.20;58.90;;;;;;5033244;28;20092;-62
2021/08/17 04:19:38;;;;;;;23.38;14.77;;;25.20;58.80;;;;;;5033549;28;20025;-62
2021/08/17 04:22:05;;;;;;;28.50;15.45;;;25.30;58.70;;;;;;5037445;28;20032;-62
2021/08/17 04:24:31;;;;;;;17.95;12.32;;;25.40;59.00;;;;;;5032042;28;20029;-62
2021/08/17 04:26:57;;;;;;;14.43;9.90;;;25.60;58.90;;;;;;5033668;28;20036;-62
2021/08/17 04:29:22;;;;;;;14.80;9.07;;;25.70;58.90;;;;;;5034998;28;20022;-62
2021/08/17 04:31:48;;;;;;;13.60;8.85;;;25.80;58.80;;;;;;5033907;28;20064;-62
2021/08/17 04:34:13;;;;;;;12.63;9.38;;;25.80;58.80;;;;;;5035554;28;20025;-62
2021/08/17 04:36:39;;;;;;;18.65;10.15;;;25.80;58.70;;;;;;5035350;28;20362;-62
2021/08/17 04:39:05;;;;;;;12.82;10.68;;;25.90;58.90;;;;;;5034727;28;20439;-62
2021/08/17 04:41:30;;;;;;;10.80;8.90;;;25.90;58.60;;;;;;5041814;28;20029;-62
2021/08/17 04:43:56;;;;;;;12.85;9.25;;;26.00;58.70;;;;;;5035365;28;20470;-62
2021/08/17 04:46:22;;;;;;;15.50;9.55;;;26.20;58.50;;;;;;5034660;28;20057;-62
2021/08/17 04:48:49;;;;;;;11.88;10.27;;;26.50;58.20;;;;;;5035435;28;20514;-61
2021/08/17 04:51:15;;;;;;;13.57;9.38;;;26.70;58.10;;;;;;5019308;28;20021;-61
2021/08/17 04:53:40;;;;;;;15.43;13.10;;;26.80;57.10;;;;;;5035406;28;20020;-62
2021/08/17 04:56:06;;;;;;;27.58;20.42;;;26.90;57.10;;;;;;5020966;28;20028;-62
2021/08/17 04:58:32;;;;;;;65.38;46.53;;;26.80;56.90;;;;;;5044566;28;20021;-62
2021/08/17 05:00:58;;;;;;;59.00;45.55;;;26.90;57.10;;;;;;5036988;28;20029;-61
2021/08/17 05:03:25;;;;;;;47.38;34.60;;;26.90;57.10;;;;;;5027030;28;20025;-62
2021/08/17 05:05:51;;;;;;;30.63;24.13;;;27.00;56.80;;;;;;5032619;28;20033;-62
2021/08/17 05:08:17;;;;;;;25.40;19.15;;;27.10;56.80;;;;;;5036848;28;20029;-62
2021/08/17 05:10:43;;;;;;;19.50;15.35;;;27.10;56.60;;;;;;5029298;28;20028;-62
2021/08/17 05:13:08;;;;;;;17.05;13.10;;;27.20;56.50;;;;;;5031997;28;20025;-64
2021/08/17 05:15:34;;;;;;;16.23;11.77;;;27.20;56.20;;;;;;5025261;28;20026;-64
2021/08/17 05:18:02;;;;;;;15.88;11.27;;;27.30;56.40;;;;;;5029256;28;20358;-64
2021/08/17 05:20:28;;;;;;;13.15;10.20;;;27.30;56.30;;;;;;5028122;28;20036;-64
2021/08/17 05:22:53;;;;;;;17.40;11.70;;;27.30;56.40;;;;;;5026574;28;20452;-64
2021/08/17 05:25:19;;;;;;;13.38;9.93;;;27.30;56.70;;;;;;5028296;28;20095;-64
2021/08/17 05:27:45;;;;;;;16.02;9.93;;;27.30;56.40;;;;;;5027497;28;20045;-64
2021/08/17 05:30:11;;;;;;;15.60;10.40;;;27.50;56.60;;;;;;5022422;28;20061;-64
2021/08/17 05:32:38;;;;;;;16.00;11.32;;;27.70;56.50;;;;;;5029155;28;20030;-64
2021/08/17 05:35:04;;;;;;;16.70;11.10;;;28.10;56.30;;;;;;5026352;28;20028;-63
2021/08/17 05:37:30;;;;;;;14.82;11.15;;;28.60;55.80;;;;;;5028504;28;20040;-63
2021/08/17 05:39:58;;;;;;;13.15;9.70;;;29.00;55.30;;;;;;5025962;28;20056;-62
2021/08/17 05:42:24;;;;;;;13.55;9.77;;;29.30;54.50;;;;;;5018254;28;20095;-62
2021/08/17 05:44:49;;;;;;;13.65;9.23;;;29.40;54.50;;;;;;5022589;28;20029;-62
2021/08/17 05:47:15;;;;;;;11.80;9.40;;;29.40;54.00;;;;;;5027455;28;20393;-62
2021/08/17 05:49:41;;;;;;;11.80;9.20;;;29.30;54.10;;;;;;5027249;28;20045;-62
2021/08/17 05:52:09;;;;;;;11.52;9.13;;;29.30;54.30;;;;;;5016252;28;20033;-62
2021/08/17 05:54:35;;;;;;;12.35;9.00;;;29.20;54.40;;;;;;5017919;28;22387;-62
2021/08/17 05:57:01;;;;;;;12.38;9.15;;;29.20;54.70;;;;;;5015727;28;20026;-62
2021/08/17 05:59:27;;;;;;;11.00;8.88;;;29.10;55.00;;;;;;5018445;28;20021;-62
2021/08/17 06:01:54;;;;;;;13.70;9.02;;;29.00;54.80;;;;;;5019969;28;20033;-62
2021/08/17 06:04:20;;;;;;;13.80;8.68;;;28.90;54.50;;;;;;5016179;28;20025;-62
2021/08/17 06:06:47;;;;;;;10.65;7.68;;;28.90;54.50;;;;;;5016421;28;20091;-63
2021/08/17 06:09:13;;;;;;;11.02;7.55;;;28.90;54.20;;;;;;5016058;28;20022;-63
2021/08/17 06:11:39;;;;;;;12.93;7.90;;;28.80;53.80;;;;;;5016378;28;20099;-63
2021/08/17 06:14:04;;;;;;;12.15;8.20;;;28.80;53.70;;;;;;5017465;28;20400;-63
2021/08/17 06:16:30;;;;;;;8.75;7.55;;;28.80;54.10;;;;;;5017193;28;20022;-62
2021/08/17 06:18:56;;;;;;;15.05;7.88;;;28.80;54.30;;;;;;5018971;28;20028;-63
2021/08/17 06:21:21;;;;;;;10.32;8.07;;;28.70;54.30;;;;;;5021541;28;20036;-62
2021/08/17 06:23:47;;;;;;;8.98;7.20;;;28.70;54.50;;;;;;5018408;28;20037;-62
2021/08/17 06:26:13;;;;;;;10.02;7.13;;;28.80;54.80;;;;;;5016497;28;20499;-63
2021/08/17 06:28:41;;;;;;;16.10;8.18;;;28.70;55.00;;;;;;5022043;28;20037;-61
2021/08/17 06:31:07;;;;;;;11.85;7.18;;;28.70;54.90;;;;;;5013042;28;20155;-62
2021/08/17 06:33:33;;;;;;;9.50;7.70;;;28.70;54.30;;;;;;5015636;28;20026;-63
2021/08/17 06:35:59;;;;;;;10.15;7.32;;;28.70;54.70;;;;;;5014428;28;20029;-62
2021/08/17 06:38:25;;;;;;;9.30;6.45;;;28.70;54.70;;;;;;5009699;28;20513;-62
2021/08/17 06:40:50;;;;;;;12.55;5.95;;;28.60;53.30;;;;;;5015089;28;20069;-62
2021/08/17 06:43:16;;;;;;;8.10;6.07;;;28.70;52.60;;;;;;5018590;28;20037;-60
2021/08/17 06:45:42;;;;;;;12.85;6.18;;;28.70;52.00;;;;;;5018906;28;20425;-62
2021/08/17 06:48:07;;;;;;;7.55;5.20;;;28.70;51.40;;;;;;5020257;28;20079;-63
2021/08/17 06:50:33;;;;;;;8.63;5.93;;;28.80;50.80;;;;;;5018962;28;20037;-62
2021/08/17 06:52:59;;;;;;;8.75;5.65;;;28.80;50.40;;;;;;5012105;28;21528;-61
2021/08/17 06:55:25;;;;;;;8.25;5.45;;;28.90;50.10;;;;;;5011798;28;20076;-59
2021/08/17 06:57:50;;;;;;;6.82;5.20;;;28.90;50.00;;;;;;5013510;28;20470;-59
2021/08/17 07:00:16;;;;;;;7.40;5.45;;;29.00;50.80;;;;;;5007410;28;20030;-63
2021/08/17 07:02:42;;;;;;;6.57;5.47;;;29.00;50.80;;;;;;5016672;28;20042;-62
2021/08/17 07:05:08;;;;;;;6.40;5.40;;;29.10;50.90;;;;;;5015125;28;20033;-61
2021/08/17 07:07:34;;;;;;;7.80;5.22;;;29.10;50.50;;;;;;5011820;28;20030;-60
2021/08/17 07:10:01;;;;;;;6.30;4.85;;;29.10;50.40;;;;;;5006133;28;20030;-61
2021/08/17 07:12:26;;;;;;;11.30;6.13;;;29.10;49.50;;;;;;5007650;28;20103;-63
2021/08/17 07:14:52;;;;;;;10.05;4.53;;;29.20;49.10;;;;;;5007456;28;20068;-62
2021/08/17 07:17:18;;;;;;;6.72;4.65;;;29.20;48.60;;;;;;5013222;28;20026;-63
2021/08/17 07:19:44;;;;;;;7.60;4.57;;;29.30;48.20;;;;;;5009200;28;20072;-60
2021/08/17 07:22:10;;;;;;;9.18;4.68;;;29.30;48.00;;;;;;5010540;28;20022;-61
2021/08/17 07:24:35;;;;;;;8.57;4.75;;;29.30;47.60;;;;;;5017473;28;20037;-62
2021/08/17 07:27:01;;;;;;;9.77;4.72;;;29.40;47.50;;;;;;5015087;28;20156;-62
2021/08/17 07:29:27;;;;;;;6.35;4.40;;;29.40;47.20;;;;;;5011703;28;20527;-62
2021/08/17 07:31:53;;;;;;;7.95;5.03;;;29.50;47.00;;;;;;4996112;28;20052;-62
2021/08/17 07:34:19;;;;;;;5.72;4.47;;;29.50;46.90;;;;;;5007783;28;20060;-61
2021/08/17 07:36:45;;;;;;;9.70;4.78;;;29.50;46.60;;;;;;5011576;28;20445;-62
2021/08/17 07:39:14;;;;;;;5.95;4.35;;;29.60;46.80;;;;;;5018830;28;20041;-58
2021/08/17 07:41:41;;;;;;;6.15;4.70;;;29.60;46.50;;;;;;5014604;28;20558;-62
2021/08/17 07:44:07;;;;;;;5.30;4.20;;;29.60;46.70;;;;;;5010554;28;20045;-60
2021/08/17 07:46:33;;;;;;;7.38;4.60;;;29.60;46.40;;;;;;5005830;28;20205;-60
2021/08/17 07:48:59;;;;;;;8.88;4.72;;;29.70;46.60;;;;;;5013030;28;20033;-62
2021/08/17 07:51:27;;;;;;;9.05;4.78;;;29.70;46.40;;;;;;5012951;28;20501;-63
2021/08/17 07:53:53;;;;;;;8.27;4.85;;;29.70;46.80;;;;;;5013984;28;20040;-60
2021/08/17 07:56:19;;;;;;;6.82;4.20;;;29.70;46.70;;;;;;5007502;28;20038;-62
2021/08/17 07:58:46;;;;;;;7.53;4.50;;;29.80;47.10;;;;;;4999894;28;20065;-62
2021/08/17 08:01:12;;;;;;;9.00;5.90;;;29.80;46.80;;;;;;5005861;28;20030;-63
2021/08/17 08:03:40;;;;;;;8.68;5.10;;;29.80;46.70;;;;;;5004465;28;20025;-60
2021/08/17 08:06:09;;;;;;;9.60;5.10;;;29.80;46.90;;;;;;5009154;28;20063;-60
2021/08/17 08:08:35;;;;;;;10.70;5.85;;;29.80;47.20;;;;;;5016100;28;20037;-62
2021/08/17 08:11:02;;;;;;;12.35;8.10;;;29.80;46.80;;;;;;5019188;28;20017;-62
2021/08/17 08:13:28;;;;;;;12.18;7.40;;;29.90;46.70;;;;;;5016946;28;20033;-62
2021/08/17 08:15:54;;;;;;;13.43;7.47;;;29.90;46.70;;;;;;5019604;28;20126;-61
2021/08/17 08:18:20;;;;;;;15.82;7.95;;;30.00;46.70;;;;;;5015891;28;20124;-61
2021/08/17 08:20:46;;;;;;;17.65;10.98;;;30.00;46.60;;;;;;5015344;28;20079;-63
2021/08/17 08:23:11;;;;;;;14.23;9.35;;;30.10;46.30;;;;;;5018368;28;20044;-62
2021/08/17 08:25:37;;;;;;;14.30;7.75;;;30.10;46.20;;;;;;5014195;28;20041;-59
2021/08/17 08:28:03;;;;;;;8.98;6.05;;;30.20;46.00;;;;;;5009099;28;20041;-58
2021/08/17 08:30:30;;;;;;;8.63;5.82;;;30.20;46.00;;;;;;5009074;28;20064;-60
2021/08/17 08:32:55;;;;;;;8.95;5.32;;;30.30;46.00;;;;;;5016535;28;20029;-60
2021/08/17 08:35:21;;;;;;;7.45;5.38;;;30.30;45.70;;;;;;5016887;28;20365;-60
2021/08/17 08:37:47;;;;;;;25.75;18.95;;;30.30;45.70;;;;;;5017893;28;20032;-62
2021/08/17 08:40:13;;;;;;;24.30;16.45;;;30.40;45.50;;;;;;5014718;28;20034;-63
2021/08/17 08:42:39;;;;;;;11.75;7.65;;;30.40;45.80;;;;;;5014962;28;20044;-60
2021/08/17 08:45:06;;;;;;;9.00;6.03;;;30.40;45.80;;;;;;5015142;28;20504;-64
2021/08/17 08:47:34;;;;;;;9.55;6.00;;;30.40;46.20;;;;;;5019790;28;20045;-61
2021/08/17 08:50:00;;;;;;;15.82;7.70;;;30.40;45.50;;;;;;5015143;28;20044;-62
2021/08/17 08:52:26;;;;;;;20.35;10.27;;;30.30;45.50;;;;;;5015868;28;20037;-61
2021/08/17 08:54:52;;;;;;;14.35;8.25;;;30.30;45.50;;;;;;5013403;28;20617;-61
2021/08/17 08:57:18;;;;;;;10.65;7.10;;;30.30;45.50;;;;;;5011106;28;20068;-62
2021/08/17 08:59:44;;;;;;;15.05;7.38;;;30.30;45.60;;;;;;5008860;28;20037;-61
2021/08/17 09:02:13;;;;;;;12.80;6.30;;;30.30;45.70;;;;;;5025921;28;20080;-64
2021/08/17 09:04:52;;;;;;;10.50;6.15;;;30.30;45.80;;;;;;5016102;28;20025;-62
2021/08/17 09:07:42;;;;;;;8.40;5.65;;;30.30;45.90;;;;;;5020016;28;20052;-60
2021/08/17 09:10:16;;;;;;;7.30;5.03;;;30.30;46.10;;;;;;5015112;28;20632;-61
2021/08/17 09:12:45;;;;;;;8.02;5.22;;;30.30;45.90;;;;;;5012484;28;20262;-61
2021/08/17 09:15:10;;;;;;;7.80;5.40;;;30.40;45.90;;;;;;5011461;28;20484;-62
2021/08/17 09:17:36;;;;;;;7.75;5.30;;;30.50;45.90;;;;;;5013080;28;20231;-63
2021/08/17 09:20:03;;;;;;;10.80;6.20;;;30.50;46.20;;;;;;5009293;28;20030;-61
2021/08/17 09:22:30;;;;;;;8.35;5.70;;;30.50;45.80;;;;;;5008359;28;20045;-62
2021/08/17 09:24:58;;;;;;;8.10;5.68;;;30.60;45.80;;;;;;5011943;28;20190;-62
2021/08/17 09:27:32;;;;;;;6.50;5.35;;;30.60;46.00;;;;;;5013622;28;20469;-59
2021/08/17 09:30:09;;;;;;;8.30;6.03;;;30.60;46.20;;;;;;5013688;28;20036;-61
2021/08/17 09:32:52;;;;;;;6.90;5.70;;;30.60;46.50;;;;;;5014355;28;20087;-61
2021/08/17 09:35:20;;;;;;;6.65;5.78;;;30.50;46.70;;;;;;5011323;28;20037;-60
2021/08/17 09:38:06;;;;;;;8.93;5.90;;;30.40;48.10;;;;;;5013427;28;20029;-62
2021/08/17 09:40:33;;;;;;;11.48;5.78;;;30.40;51.20;;;;;;5011581;28;20034;-61
2021/08/17 09:43:31;;;;;;;7.40;6.07;;;30.30;52.00;;;;;;5016817;28;21122;-62
2021/08/17 09:46:10;;;;;;;7.57;6.13;;;30.20;53.90;;;;;;4993170;28;23203;-59
2021/08/17 09:48:36;;;;;;;6.07;5.28;;;30.10;55.00;;;;;;4998871;28;20043;-62
2021/08/17 09:51:01;;;;;;;7.93;6.30;;;30.00;56.00;;;;;;5014255;28;20025;-61
2021/08/17 09:53:28;;;;;;;7.95;6.22;;;29.80;56.90;;;;;;5012993;28;20497;-63
2021/08/17 09:55:56;;;;;;;8.68;7.38;;;29.70;57.90;;;;;;5018314;28;20024;-62
2021/08/17 09:58:34;;;;;;;7.85;6.68;;;29.60;58.70;;;;;;5018304;28;20393;-62
2021/08/17 10:01:03;;;;;;;7.93;6.40;;;29.40;58.80;;;;;;5011179;28;20034;-62
2021/08/17 10:03:30;;;;;;;7.95;6.45;;;29.30;59.00;;;;;;5015151;28;20694;-62
2021/08/17 10:05:57;;;;;;;7.85;6.45;;;29.20;59.60;;;;;;5015470;28;20290;-61
2021/08/17 10:08:27;;;;;;;8.00;6.45;;;29.20;60.20;;;;;;5017760;28;20037;-62
2021/08/17 10:10:54;;;;;;;8.00;6.20;;;29.00;60.50;;;;;;5019601;28;20034;-62
2021/08/17 10:13:22;;;;;;;7.72;6.07;;;28.90;60.60;;;;;;5024250;28;20062;-61
2021/08/17 10:15:49;;;;;;;8.57;6.85;;;28.90;60.80;;;;;;5021063;28;20030;-62
2021/08/17 10:18:18;;;;;;;11.38;6.95;;;28.80;61.40;;;;;;5019798;28;20748;-61
2021/08/17 10:20:47;;;;;;;8.13;6.72;;;28.70;61.70;;;;;;5017401;28;20033;-62
2021/08/17 10:23:19;;;;;;;9.10;6.38;;;28.70;62.10;;;;;;5022744;28;20036;-62
2021/08/17 10:25:51;;;;;;;8.38;6.88;;;28.60;61.80;;;;;;5018927;28;20458;-62
2021/08/17 10:28:40;;;;;;;10.05;7.18;;;28.60;62.50;;;;;;5018255;28;20029;-62
2021/08/17 10:31:11;;;;;;;9.32;7.03;;;28.60;62.70;;;;;;5011514;28;20056;-62
2021/08/17 10:33:46;;;;;;;8.65;6.70;;;28.50;63.40;;;;;;5010608;28;20030;-62
2021/08/17 10:36:34;;;;;;;9.25;6.75;;;28.50;63.50;;;;;;5015982;28;20037;-62
2021/08/17 10:39:25;;;;;;;7.40;6.22;;;28.40;64.00;;;;;;5016889;28;20140;-62
2021/08/17 10:41:53;;;;;;;8.30;6.25;;;28.40;64.10;;;;;;5015612;28;20021;-63
2021/08/17 10:44:22;;;;;;;9.52;7.13;;;28.40;64.50;;;;;;5017191;28;20428;-63
2021/08/17 10:46:55;;;;;;;8.38;6.70;;;28.30;65.00;;;;;;5017701;28;20116;-62
2021/08/17 10:49:31;;;;;;;11.20;6.85;;;28.30;64.60;;;;;;5015430;28;20047;-62
2021/08/17 10:52:04;;;;;;;8.63;6.00;;;28.30;64.60;;;;;;4999480;28;20043;-59
2021/08/17 10:54:30;;;;;;;5.90;5.18;;;28.30;64.20;;;;;;5015259;28;20030;-63
2021/08/17 10:57:17;;;;;;;7.63;5.63;;;28.30;64.00;;;;;;5013076;28;20064;-62
2021/08/17 10:59:44;;;;;;;7.72;5.75;;;28.30;64.30;;;;;;5015794;28;20025;-62
2021/08/17 11:02:11;;;;;;;7.38;5.97;;;28.30;64.70;;;;;;5011394;28;20737;-62
2021/08/17 11:04:37;;;;;;;9.43;6.13;;;28.30;64.80;;;;;;5017695;28;20385;-62
2021/08/17 11:07:28;;;;;;;9.23;5.75;;;28.30;65.00;;;;;;5012112;28;20036;-62
2021/08/17 11:09:56;;;;;;;7.25;6.28;;;28.20;64.50;;;;;;5019586;28;20038;-62
2021/08/17 11:12:33;;;;;;;8.05;6.13;;;28.20;64.30;;;;;;5017906;28;20072;-63
2021/08/17 11:14:59;;;;;;;8.32;6.18;;;28.20;64.10;;;;;;5017764;28;20059;-63
2021/08/17 11:17:25;;;;;;;8.90;6.45;;;28.20;63.70;;;;;;5016394;28;20029;-63
2021/08/17 11:19:52;;;;;;;12.15;6.80;;;28.20;63.70;;;;;;5019403;28;20466;-61
2021/08/17 11:22:20;;;;;;;7.90;5.63;;;28.30;63.90;;;;;;5012980;28;20033;-62
2021/08/17 11:24:53;;;;;;;7.93;5.82;;;28.30;63.50;;;;;;5016343;28;20060;-61
2021/08/17 11:27:23;;;;;;;9.60;6.07;;;28.30;64.30;;;;;;5014374;28;20029;-62
2021/08/17 11:29:56;;;;;;;;;;;28.30;64.60;;;;;;5013150;28;20095;-62
2021/08/17 11:32:44;;;;;;;7.85;5.35;;;28.30;64.60;;;;;;5015047;28;20044;-61
2021/08/17 11:35:11;;;;;;;7.10;5.78;;;28.30;64.50;;;;;;5018837;28;20029;-62
2021/08/17 11:37:41;;;;;;;7.07;5.18;;;28.30;64.70;;;;;;5018629;28;20482;-62
2021/08/17 11:40:09;;;;;;;7.30;5.38;;;28.30;65.10;;;;;;5014972;28;20397;-61
2021/08/17 11:42:41;;;;;;;7.30;5.53;;;28.30;64.70;;;;;;5018216;28;20041;-62
2021/08/17 11:45:21;;;;;;;6.28;5.50;;;28.30;64.20;;;;;;5015079;28;20048;-62
2021/08/17 11:47:48;;;;;;;8.82;5.57;;;28.30;63.80;;;;;;5020982;28;20068;-62
2021/08/17 11:50:15;;;;;;;6.07;5.28;;;28.30;63.90;;;;;;5012651;28;20025;-62
2021/08/17 11:52:48;;;;;;;7.57;5.85;;;28.30;63.70;;;;;;5003648;28;20040;-62
2021/08/17 11:55:24;;;;;;;7.22;5.80;;;28.40;63.90;;;;;;5022863;28;20408;-62
2021/08/17 11:57:54;;;;;;;8.75;6.45;;;28.40;64.00;;;;;;5020120;28;20030;-62
2021/08/17 12:00:22;;;;;;;8.73;6.43;;;28.40;63.20;;;;;;5022517;28;20037;-62
2021/08/17 12:02:51;;;;;;;10.18;5.80;;;28.40;61.40;;;;;;5022245;28;20029;-63
2021/08/17 12:05:19;;;;;;;9.07;5.53;;;28.50;61.90;;;;;;5023415;28;20036;-62
2021/08/17 12:07:50;;;;;;;9.15;5.60;;;28.50;62.50;;;;;;5019719;28;20746;-61
2021/08/17 12:10:17;;;;;;;;;;;28.60;62.80;;;;;;5020748;28;20039;-60
2021/08/17 12:13:01;;;;;;;6.45;5.28;;;28.50;62.60;;;;;;5019409;28;20443;-61
2021/08/17 12:15:34;;;;;;;6.75;5.57;;;28.50;62.70;;;;;;5020116;28;20029;-61
2021/08/17 12:17:59;;;;;;;8.02;5.00;;;28.60;59.40;;;;;;5017152;28;20059;-61
2021/08/17 12:20:25;;;;;;;6.07;5.30;;;28.70;58.20;;;;;;5020226;28;20048;-62
2021/08/17 12:22:51;;;;;;;6.93;5.32;;;28.90;57.40;;;;;;5016529;28;20029;-60
2021/08/17 12:25:21;;;;;;;7.75;5.60;;;29.00;59.00;;;;;;5018745;28;20084;-62
2021/08/17 12:27:58;;;;;;;6.65;5.63;;;29.00;58.80;;;;;;5013866;28;20029;-59
2021/08/17 12:30:32;;;;;;;7.15;5.25;;;29.10;57.90;;;;;;5014521;28;20469;-62
2021/08/17 12:32:59;;;;;;;8.30;5.10;;;29.10;55.90;;;;;;5012070;28;20326;-62
2021/08/17 12:35:35;;;;;;;9.50;5.50;;;29.10;54.80;;;;;;5017612;28;20087;-61
2021/08/17 12:38:18;;;;;;;7.50;5.63;;;29.20;54.10;;;;;;5017298;28;20026;-60
2021/08/17 12:40:48;;;;;;;6.88;5.25;;;29.30;53.70;;;;;;5018191;28;20048;-62